sensor_id;sensor_type;location;lat;lon;timestamp;temperature;humidity
4306;DHT22;2166;49.926;8.608;2022-07-06T00:01:24;17.70;67.60
4306;DHT22;2166;49.926;8.608;2022-07-06T00:03:52;17.60;67.60
4306;DHT22;2166;49.926;8.608;2022-07-06T00:06:22;17.60;67.80
4306;DHT22;2166;49.926;8.608;2022-07-06T00:08:51;17.50;68.00
4306;DHT22;2166;49.926;8.608;2022-07-06T00:11:19;17.40;68.40
4306;DHT22;2166;49.926;8.608;2022-07-06T00:13:48;17.30;68.50
4306;DHT22;2166;49.926;8.608;2022-07-06T00:16:16;17.30;68.50
4306;DHT22;2166;49.926;8.608;2022-07-06T00:18:46;17.30;68.60
4306;DHT22;2166;49.926;8.608;2022-07-06T00:21:14;17.20;68.90
4306;DHT22;2166;49.926;8.608;2022-07-06T00:23:43;17.20;68.90
4306;DHT22;2166;49.926;8.608;2022-07-06T00:26:11;17.10;68.90
4306;DHT22;2166;49.926;8.608;2022-07-06T00:28:39;17.10;69.00
4306;DHT22;2166;49.926;8.608;2022-07-06T00:31:08;17.10;69.20
4306;DHT22;2166;49.926;8.608;2022-07-06T00:33:36;17.10;69.10
4306;DHT22;2166;49.926;8.608;2022-07-06T00:36:06;17.00;69.00
4306;DHT22;2166;49.926;8.608;2022-07-06T00:38:34;16.90;69.20
4306;DHT22;2166;49.926;8.608;2022-07-06T00:41:03;16.90;69.40
4306;DHT22;2166;49.926;8.608;2022-07-06T00:43:47;16.90;69.40
4306;DHT22;2166;49.926;8.608;2022-07-06T00:46:15;16.90;69.50
4306;DHT22;2166;49.926;8.608;2022-07-06T00:48:44;16.80;69.70
4306;DHT22;2166;49.926;8.608;2022-07-06T00:51:14;16.80;69.80
4306;DHT22;2166;49.926;8.608;2022-07-06T00:53:43;16.70;70.00
4306;DHT22;2166;49.926;8.608;2022-07-06T00:56:12;16.70;70.20
4306;DHT22;2166;49.926;8.608;2022-07-06T00:58:40;16.70;70.20
4306;DHT22;2166;49.926;8.608;2022-07-06T01:01:09;16.60;70.30
4306;DHT22;2166;49.926;8.608;2022-07-06T01:03:37;16.60;70.30
4306;DHT22;2166;49.926;8.608;2022-07-06T01:06:06;16.60;70.60
4306;DHT22;2166;49.926;8.608;2022-07-06T01:08:35;16.50;70.60
4306;DHT22;2166;49.926;8.608;2022-07-06T01:11:03;16.50;70.70
4306;DHT22;2166;49.926;8.608;2022-07-06T01:13:33;16.50;70.70
4306;DHT22;2166;49.926;8.608;2022-07-06T01:16:01;16.50;70.70
4306;DHT22;2166;49.926;8.608;2022-07-06T01:18:30;16.50;70.80
4306;DHT22;2166;49.926;8.608;2022-07-06T01:21:10;16.40;70.90
4306;DHT22;2166;49.926;8.608;2022-07-06T01:23:40;16.40;70.90
4306;DHT22;2166;49.926;8.608;2022-07-06T01:26:10;16.40;71.10
4306;DHT22;2166;49.926;8.608;2022-07-06T01:28:40;16.30;71.30
4306;DHT22;2166;49.926;8.608;2022-07-06T01:31:17;16.30;71.50
4306;DHT22;2166;49.926;8.608;2022-07-06T01:33:46;16.30;71.50
4306;DHT22;2166;49.926;8.608;2022-07-06T01:36:15;16.30;71.40
4306;DHT22;2166;49.926;8.608;2022-07-06T01:38:45;16.30;71.60
4306;DHT22;2166;49.926;8.608;2022-07-06T01:41:13;16.30;71.50
4306;DHT22;2166;49.926;8.608;2022-07-06T01:43:42;16.40;71.50
4306;DHT22;2166;49.926;8.608;2022-07-06T01:46:11;16.40;71.50
4306;DHT22;2166;49.926;8.608;2022-07-06T01:48:40;16.40;71.50
4306;DHT22;2166;49.926;8.608;2022-07-06T01:51:09;16.30;71.60
4306;DHT22;2166;49.926;8.608;2022-07-06T01:53:41;16.30;71.70
4306;DHT22;2166;49.926;8.608;2022-07-06T01:56:09;16.30;71.80
4306;DHT22;2166;49.926;8.608;2022-07-06T01:58:38;16.30;71.80
4306;DHT22;2166;49.926;8.608;2022-07-06T02:01:08;16.30;72.00
4306;DHT22;2166;49.926;8.608;2022-07-06T02:03:37;16.20;72.10
4306;DHT22;2166;49.926;8.608;2022-07-06T02:06:06;16.20;72.20
4306;DHT22;2166;49.926;8.608;2022-07-06T02:08:35;16.20;72.10
4306;DHT22;2166;49.926;8.608;2022-07-06T02:11:05;16.10;72.30
4306;DHT22;2166;49.926;8.608;2022-07-06T02:13:37;16.00;72.40
4306;DHT22;2166;49.926;8.608;2022-07-06T02:16:08;16.00;72.60
4306;DHT22;2166;49.926;8.608;2022-07-06T02:18:37;15.90;72.70
4306;DHT22;2166;49.926;8.608;2022-07-06T02:21:06;15.90;72.70
4306;DHT22;2166;49.926;8.608;2022-07-06T02:23:34;15.80;72.90
4306;DHT22;2166;49.926;8.608;2022-07-06T02:26:02;15.80;73.00
4306;DHT22;2166;49.926;8.608;2022-07-06T02:28:33;15.70;72.90
4306;DHT22;2166;49.926;8.608;2022-07-06T02:31:02;15.70;72.90
4306;DHT22;2166;49.926;8.608;2022-07-06T02:33:31;15.60;73.10
4306;DHT22;2166;49.926;8.608;2022-07-06T02:35:59;15.60;73.10
4306;DHT22;2166;49.926;8.608;2022-07-06T02:38:28;15.50;73.30
4306;DHT22;2166;49.926;8.608;2022-07-06T02:40:57;15.50;73.20
4306;DHT22;2166;49.926;8.608;2022-07-06T02:43:25;15.50;73.00
4306;DHT22;2166;49.926;8.608;2022-07-06T02:45:55;15.40;73.00
4306;DHT22;2166;49.926;8.608;2022-07-06T02:48:25;15.40;73.20
4306;DHT22;2166;49.926;8.608;2022-07-06T02:50:54;15.40;73.20
4306;DHT22;2166;49.926;8.608;2022-07-06T02:53:23;15.30;73.20
4306;DHT22;2166;49.926;8.608;2022-07-06T02:55:53;15.30;73.00
4306;DHT22;2166;49.926;8.608;2022-07-06T02:58:21;15.30;73.10
4306;DHT22;2166;49.926;8.608;2022-07-06T03:00:51;15.30;73.10
4306;DHT22;2166;49.926;8.608;2022-07-06T03:03:21;15.20;73.10
4306;DHT22;2166;49.926;8.608;2022-07-06T03:05:49;15.20;73.10
4306;DHT22;2166;49.926;8.608;2022-07-06T03:08:19;15.20;73.10
4306;DHT22;2166;49.926;8.608;2022-07-06T03:10:48;15.20;73.10
4306;DHT22;2166;49.926;8.608;2022-07-06T03:13:17;15.10;73.20
4306;DHT22;2166;49.926;8.608;2022-07-06T03:15:46;15.00;73.40
4306;DHT22;2166;49.926;8.608;2022-07-06T03:18:14;15.00;73.50
4306;DHT22;2166;49.926;8.608;2022-07-06T03:20:44;15.00;73.50
4306;DHT22;2166;49.926;8.608;2022-07-06T03:23:15;15.00;73.50
4306;DHT22;2166;49.926;8.608;2022-07-06T03:25:45;15.00;73.60
4306;DHT22;2166;49.926;8.608;2022-07-06T03:28:13;14.90;73.60
4306;DHT22;2166;49.926;8.608;2022-07-06T03:30:41;14.90;73.50
4306;DHT22;2166;49.926;8.608;2022-07-06T03:33:10;14.90;73.50
4306;DHT22;2166;49.926;8.608;2022-07-06T03:35:39;14.90;73.60
4306;DHT22;2166;49.926;8.608;2022-07-06T03:38:11;14.90;73.60
4306;DHT22;2166;49.926;8.608;2022-07-06T03:40:41;14.90;73.70
4306;DHT22;2166;49.926;8.608;2022-07-06T03:43:10;14.90;73.70
4306;DHT22;2166;49.926;8.608;2022-07-06T03:45:38;14.90;73.90
4306;DHT22;2166;49.926;8.608;2022-07-06T03:48:06;14.90;73.90
4306;DHT22;2166;49.926;8.608;2022-07-06T03:50:37;14.80;74.10
4306;DHT22;2166;49.926;8.608;2022-07-06T03:53:05;14.70;74.20
4306;DHT22;2166;49.926;8.608;2022-07-06T03:55:36;14.70;74.50
4306;DHT22;2166;49.926;8.608;2022-07-06T03:58:07;14.70;74.40
4306;DHT22;2166;49.926;8.608;2022-07-06T04:00:38;14.70;74.60
4306;DHT22;2166;49.926;8.608;2022-07-06T04:03:13;14.70;74.50
4306;DHT22;2166;49.926;8.608;2022-07-06T04:05:46;14.80;74.30
4306;DHT22;2166;49.926;8.608;2022-07-06T04:08:14;14.80;74.30
4306;DHT22;2166;49.926;8.608;2022-07-06T04:10:52;14.80;74.40
4306;DHT22;2166;49.926;8.608;2022-07-06T04:13:21;15.00;74.10
4306;DHT22;2166;49.926;8.608;2022-07-06T04:15:50;15.20;73.50
4306;DHT22;2166;49.926;8.608;2022-07-06T04:18:19;15.60;72.70
4306;DHT22;2166;49.926;8.608;2022-07-06T04:20:52;16.00;71.60
4306;DHT22;2166;49.926;8.608;2022-07-06T04:23:20;16.50;70.80
4306;DHT22;2166;49.926;8.608;2022-07-06T04:25:51;16.90;69.90
4306;DHT22;2166;49.926;8.608;2022-07-06T04:28:20;17.40;69.20
4306;DHT22;2166;49.926;8.608;2022-07-06T04:30:48;17.90;68.50
4306;DHT22;2166;49.926;8.608;2022-07-06T04:33:20;18.30;67.60
4306;DHT22;2166;49.926;8.608;2022-07-06T04:35:49;18.70;66.90
4306;DHT22;2166;49.926;8.608;2022-07-06T04:38:20;19.20;66.40
4306;DHT22;2166;49.926;8.608;2022-07-06T04:40:52;19.70;65.10
4306;DHT22;2166;49.926;8.608;2022-07-06T04:43:20;20.20;64.00
4306;DHT22;2166;49.926;8.608;2022-07-06T04:45:48;20.50;63.20
4306;DHT22;2166;49.926;8.608;2022-07-06T04:48:17;20.70;62.60
4306;DHT22;2166;49.926;8.608;2022-07-06T04:50:46;20.70;62.20
4306;DHT22;2166;49.926;8.608;2022-07-06T04:53:20;20.60;62.40
4306;DHT22;2166;49.926;8.608;2022-07-06T04:55:49;20.50;62.50
4306;DHT22;2166;49.926;8.608;2022-07-06T04:58:20;20.70;62.40
4306;DHT22;2166;49.926;8.608;2022-07-06T05:00:49;21.20;61.20
4306;DHT22;2166;49.926;8.608;2022-07-06T05:03:17;21.90;60.10
4306;DHT22;2166;49.926;8.608;2022-07-06T05:05:46;22.30;59.00
4306;DHT22;2166;49.926;8.608;2022-07-06T05:08:15;22.70;58.10
4306;DHT22;2166;49.926;8.608;2022-07-06T05:10:44;23.00;57.20
4306;DHT22;2166;49.926;8.608;2022-07-06T05:13:12;23.20;56.70
4306;DHT22;2166;49.926;8.608;2022-07-06T05:15:42;23.40;56.60
4306;DHT22;2166;49.926;8.608;2022-07-06T05:18:10;23.60;55.70
4306;DHT22;2166;49.926;8.608;2022-07-06T05:20:41;23.80;55.60
4306;DHT22;2166;49.926;8.608;2022-07-06T05:23:09;23.80;55.90
4306;DHT22;2166;49.926;8.608;2022-07-06T05:25:38;24.00;55.50
4306;DHT22;2166;49.926;8.608;2022-07-06T05:28:06;23.90;55.80
4306;DHT22;2166;49.926;8.608;2022-07-06T05:30:34;24.10;54.80
4306;DHT22;2166;49.926;8.608;2022-07-06T05:33:04;23.60;56.20
4306;DHT22;2166;49.926;8.608;2022-07-06T05:35:33;23.80;55.90
4306;DHT22;2166;49.926;8.608;2022-07-06T05:38:23;24.00;55.20
4306;DHT22;2166;49.926;8.608;2022-07-06T05:40:53;24.00;55.50
4306;DHT22;2166;49.926;8.608;2022-07-06T05:43:21;24.00;55.40
4306;DHT22;2166;49.926;8.608;2022-07-06T05:45:50;24.10;54.90
4306;DHT22;2166;49.926;8.608;2022-07-06T05:48:22;24.20;54.80
4306;DHT22;2166;49.926;8.608;2022-07-06T05:51:09;24.30;54.80
4306;DHT22;2166;49.926;8.608;2022-07-06T05:53:40;24.70;53.60
4306;DHT22;2166;49.926;8.608;2022-07-06T05:56:08;24.90;53.40
4306;DHT22;2166;49.926;8.608;2022-07-06T05:58:38;25.50;52.70
4306;DHT22;2166;49.926;8.608;2022-07-06T06:01:06;25.70;51.40
4306;DHT22;2166;49.926;8.608;2022-07-06T06:03:38;25.80;51.00
4306;DHT22;2166;49.926;8.608;2022-07-06T06:06:07;25.60;51.40
4306;DHT22;2166;49.926;8.608;2022-07-06T06:08:35;25.90;51.10
4306;DHT22;2166;49.926;8.608;2022-07-06T06:11:05;26.30;50.40
4306;DHT22;2166;49.926;8.608;2022-07-06T06:13:39;26.10;50.50
4306;DHT22;2166;49.926;8.608;2022-07-06T06:16:07;25.70;51.00
4306;DHT22;2166;49.926;8.608;2022-07-06T06:18:36;25.30;52.10
4306;DHT22;2166;49.926;8.608;2022-07-06T06:21:10;24.90;52.60
4306;DHT22;2166;49.926;8.608;2022-07-06T06:23:38;24.20;53.70
4306;DHT22;2166;49.926;8.608;2022-07-06T06:26:06;24.00;54.70
4306;DHT22;2166;49.926;8.608;2022-07-06T06:28:34;23.70;55.30
4306;DHT22;2166;49.926;8.608;2022-07-06T06:31:03;23.20;56.20
4306;DHT22;2166;49.926;8.608;2022-07-06T06:33:32;22.80;57.20
4306;DHT22;2166;49.926;8.608;2022-07-06T06:36:00;22.40;58.40
4306;DHT22;2166;49.926;8.608;2022-07-06T06:38:29;22.40;58.90
4306;DHT22;2166;49.926;8.608;2022-07-06T06:40:57;23.20;57.40
4306;DHT22;2166;49.926;8.608;2022-07-06T06:43:26;23.50;56.00
4306;DHT22;2166;49.926;8.608;2022-07-06T06:45:59;24.40;54.50
4306;DHT22;2166;49.926;8.608;2022-07-06T06:48:27;24.70;53.50
4306;DHT22;2166;49.926;8.608;2022-07-06T06:50:56;25.10;52.80
4306;DHT22;2166;49.926;8.608;2022-07-06T06:53:24;25.50;51.50
4306;DHT22;2166;49.926;8.608;2022-07-06T06:55:53;26.10;50.60
4306;DHT22;2166;49.926;8.608;2022-07-06T06:58:22;26.30;49.80
4306;DHT22;2166;49.926;8.608;2022-07-06T07:00:50;26.50;49.10
4306;DHT22;2166;49.926;8.608;2022-07-06T07:03:19;26.60;48.80
4306;DHT22;2166;49.926;8.608;2022-07-06T07:05:47;26.60;48.40
4306;DHT22;2166;49.926;8.608;2022-07-06T07:08:16;26.40;49.20
4306;DHT22;2166;49.926;8.608;2022-07-06T07:10:44;26.40;48.60
4306;DHT22;2166;49.926;8.608;2022-07-06T07:13:13;26.10;49.50
4306;DHT22;2166;49.926;8.608;2022-07-06T07:15:42;26.30;49.00
4306;DHT22;2166;49.926;8.608;2022-07-06T07:18:10;26.80;48.10
4306;DHT22;2166;49.926;8.608;2022-07-06T07:20:42;27.00;47.80
4306;DHT22;2166;49.926;8.608;2022-07-06T07:23:10;26.90;47.90
4306;DHT22;2166;49.926;8.608;2022-07-06T07:25:38;27.00;47.60
4306;DHT22;2166;49.926;8.608;2022-07-06T07:28:07;27.20;47.20
4306;DHT22;2166;49.926;8.608;2022-07-06T07:30:36;27.20;46.90
4306;DHT22;2166;49.926;8.608;2022-07-06T07:33:04;26.90;47.40
4306;DHT22;2166;49.926;8.608;2022-07-06T07:35:33;26.60;48.00
4306;DHT22;2166;49.926;8.608;2022-07-06T07:38:01;26.40;48.40
4306;DHT22;2166;49.926;8.608;2022-07-06T07:40:29;26.50;48.10
4306;DHT22;2166;49.926;8.608;2022-07-06T07:42:58;26.90;47.70
4306;DHT22;2166;49.926;8.608;2022-07-06T07:45:26;27.30;47.30
4306;DHT22;2166;49.926;8.608;2022-07-06T07:47:56;27.50;46.10
4306;DHT22;2166;49.926;8.608;2022-07-06T07:50:24;27.50;45.90
4306;DHT22;2166;49.926;8.608;2022-07-06T07:52:53;27.10;46.10
4306;DHT22;2166;49.926;8.608;2022-07-06T07:55:22;27.00;47.00
4306;DHT22;2166;49.926;8.608;2022-07-06T07:58:08;27.40;46.30
4306;DHT22;2166;49.926;8.608;2022-07-06T08:00:36;27.60;46.10
4306;DHT22;2166;49.926;8.608;2022-07-06T08:03:06;27.60;45.50
4306;DHT22;2166;49.926;8.608;2022-07-06T08:05:34;27.70;44.80
4306;DHT22;2166;49.926;8.608;2022-07-06T08:08:03;27.50;45.20
4306;DHT22;2166;49.926;8.608;2022-07-06T08:10:31;27.50;44.80
4306;DHT22;2166;49.926;8.608;2022-07-06T08:13:19;28.10;44.70
4306;DHT22;2166;49.926;8.608;2022-07-06T08:15:48;29.40;42.30
4306;DHT22;2166;49.926;8.608;2022-07-06T08:18:18;29.70;42.40
4306;DHT22;2166;49.926;8.608;2022-07-06T08:20:46;29.90;41.20
4306;DHT22;2166;49.926;8.608;2022-07-06T08:23:35;29.30;41.40
4306;DHT22;2166;49.926;8.608;2022-07-06T08:26:03;28.90;42.50
4306;DHT22;2166;49.926;8.608;2022-07-06T08:28:31;29.10;41.90
4306;DHT22;2166;49.926;8.608;2022-07-06T08:30:59;29.60;42.10
4306;DHT22;2166;49.926;8.608;2022-07-06T08:33:29;29.50;41.50
4306;DHT22;2166;49.926;8.608;2022-07-06T08:35:58;29.90;41.10
4306;DHT22;2166;49.926;8.608;2022-07-06T08:38:26;30.10;40.90
4306;DHT22;2166;49.926;8.608;2022-07-06T08:40:55;30.70;40.10
4306;DHT22;2166;49.926;8.608;2022-07-06T08:43:24;31.40;39.20
4306;DHT22;2166;49.926;8.608;2022-07-06T08:45:54;32.90;37.70
4306;DHT22;2166;49.926;8.608;2022-07-06T08:48:23;33.60;36.60
4306;DHT22;2166;49.926;8.608;2022-07-06T08:50:54;33.70;36.20
4306;DHT22;2166;49.926;8.608;2022-07-06T08:53:23;33.00;36.70
4306;DHT22;2166;49.926;8.608;2022-07-06T08:55:53;32.40;38.00
4306;DHT22;2166;49.926;8.608;2022-07-06T08:58:24;32.70;37.70
4306;DHT22;2166;49.926;8.608;2022-07-06T09:00:52;32.50;38.00
4306;DHT22;2166;49.926;8.608;2022-07-06T09:03:21;33.50;36.80
4306;DHT22;2166;49.926;8.608;2022-07-06T09:05:50;34.20;35.50
4306;DHT22;2166;49.926;8.608;2022-07-06T09:08:24;35.50;34.50
4306;DHT22;2166;49.926;8.608;2022-07-06T09:10:53;36.40;33.60
4306;DHT22;2166;49.926;8.608;2022-07-06T09:13:22;36.90;32.90
4306;DHT22;2166;49.926;8.608;2022-07-06T09:15:51;38.40;31.10
4306;DHT22;2166;49.926;8.608;2022-07-06T09:18:36;39.00;30.70
4306;DHT22;2166;49.926;8.608;2022-07-06T09:21:04;39.00;30.50
4306;DHT22;2166;49.926;8.608;2022-07-06T09:23:35;37.80;30.50
4306;DHT22;2166;49.926;8.608;2022-07-06T09:26:05;36.20;32.10
4306;DHT22;2166;49.926;8.608;2022-07-06T09:28:41;34.90;33.50
4306;DHT22;2166;49.926;8.608;2022-07-06T09:31:10;34.60;34.20
4306;DHT22;2166;49.926;8.608;2022-07-06T09:33:54;35.70;32.70
4306;DHT22;2166;49.926;8.608;2022-07-06T09:36:39;37.60;31.40
4306;DHT22;2166;49.926;8.608;2022-07-06T09:39:24;38.60;30.10
4306;DHT22;2166;49.926;8.608;2022-07-06T09:41:54;38.10;30.20
4306;DHT22;2166;49.926;8.608;2022-07-06T09:44:24;38.30;30.20
4306;DHT22;2166;49.926;8.608;2022-07-06T09:46:53;38.70;29.90
4306;DHT22;2166;49.926;8.608;2022-07-06T09:49:23;38.40;29.60
4306;DHT22;2166;49.926;8.608;2022-07-06T09:51:53;38.40;28.90
4306;DHT22;2166;49.926;8.608;2022-07-06T09:54:24;38.80;28.50
4306;DHT22;2166;49.926;8.608;2022-07-06T09:56:53;38.10;29.20
4306;DHT22;2166;49.926;8.608;2022-07-06T09:59:23;37.40;29.50
4306;DHT22;2166;49.926;8.608;2022-07-06T10:01:52;37.30;30.20
4306;DHT22;2166;49.926;8.608;2022-07-06T10:04:22;37.20;29.80
4306;DHT22;2166;49.926;8.608;2022-07-06T10:06:52;34.80;32.50
4306;DHT22;2166;49.926;8.608;2022-07-06T10:09:25;33.80;32.60
4306;DHT22;2166;49.926;8.608;2022-07-06T10:11:59;33.00;33.60
4306;DHT22;2166;49.926;8.608;2022-07-06T10:14:29;33.30;32.70
4306;DHT22;2166;49.926;8.608;2022-07-06T10:16:59;34.00;32.40
4306;DHT22;2166;49.926;8.608;2022-07-06T10:19:29;34.70;31.70
4306;DHT22;2166;49.926;8.608;2022-07-06T10:21:59;36.10;30.40
4306;DHT22;2166;49.926;8.608;2022-07-06T10:24:30;37.70;29.10
4306;DHT22;2166;49.926;8.608;2022-07-06T10:27:02;37.70;28.50
4306;DHT22;2166;49.926;8.608;2022-07-06T10:29:30;36.80;29.10
4306;DHT22;2166;49.926;8.608;2022-07-06T10:31:59;37.20;29.10
4306;DHT22;2166;49.926;8.608;2022-07-06T10:34:28;37.00;29.90
4306;DHT22;2166;49.926;8.608;2022-07-06T10:36:57;37.20;28.50
4306;DHT22;2166;49.926;8.608;2022-07-06T10:39:34;38.00;28.50
4306;DHT22;2166;49.926;8.608;2022-07-06T10:42:42;39.40;27.60
4306;DHT22;2166;49.926;8.608;2022-07-06T10:45:12;38.90;27.80
4306;DHT22;2166;49.926;8.608;2022-07-06T10:47:41;39.90;26.90
4306;DHT22;2166;49.926;8.608;2022-07-06T10:50:11;40.60;26.20
4306;DHT22;2166;49.926;8.608;2022-07-06T10:52:51;41.40;25.80
4306;DHT22;2166;49.926;8.608;2022-07-06T10:55:32;41.90;25.10
4306;DHT22;2166;49.926;8.608;2022-07-06T10:58:01;42.70;24.90
4306;DHT22;2166;49.926;8.608;2022-07-06T11:00:48;42.80;24.50
4306;DHT22;2166;49.926;8.608;2022-07-06T11:03:31;42.50;24.90
4306;DHT22;2166;49.926;8.608;2022-07-06T11:06:00;43.10;24.70
4306;DHT22;2166;49.926;8.608;2022-07-06T11:08:45;44.00;24.10
4306;DHT22;2166;49.926;8.608;2022-07-06T11:11:15;44.50;23.60
4306;DHT22;2166;49.926;8.608;2022-07-06T11:13:51;44.60;23.30
4306;DHT22;2166;49.926;8.608;2022-07-06T11:16:21;44.70;23.10
4306;DHT22;2166;49.926;8.608;2022-07-06T11:19:08;43.20;24.30
4306;DHT22;2166;49.926;8.608;2022-07-06T11:21:40;42.00;24.90
4306;DHT22;2166;49.926;8.608;2022-07-06T11:24:10;40.60;25.30
4306;DHT22;2166;49.926;8.608;2022-07-06T11:26:41;39.10;27.00
4306;DHT22;2166;49.926;8.608;2022-07-06T11:29:11;38.40;26.50
4306;DHT22;2166;49.926;8.608;2022-07-06T11:31:40;38.30;26.60
4306;DHT22;2166;49.926;8.608;2022-07-06T11:34:10;37.80;26.90
4306;DHT22;2166;49.926;8.608;2022-07-06T11:36:40;37.80;27.00
4306;DHT22;2166;49.926;8.608;2022-07-06T11:39:12;38.80;26.40
4306;DHT22;2166;49.926;8.608;2022-07-06T11:41:42;38.90;26.00
4306;DHT22;2166;49.926;8.608;2022-07-06T11:44:17;39.90;25.80
4306;DHT22;2166;49.926;8.608;2022-07-06T11:46:46;40.40;25.50
4306;DHT22;2166;49.926;8.608;2022-07-06T11:49:15;40.70;25.30
4306;DHT22;2166;49.926;8.608;2022-07-06T11:51:45;41.10;25.50
4306;DHT22;2166;49.926;8.608;2022-07-06T11:54:15;40.20;25.90
4306;DHT22;2166;49.926;8.608;2022-07-06T11:56:49;40.10;25.40
4306;DHT22;2166;49.926;8.608;2022-07-06T11:59:21;39.90;25.60
4306;DHT22;2166;49.926;8.608;2022-07-06T12:01:50;39.20;26.50
4306;DHT22;2166;49.926;8.608;2022-07-06T12:04:25;38.90;26.30
4306;DHT22;2166;49.926;8.608;2022-07-06T12:06:54;39.10;26.90
4306;DHT22;2166;49.926;8.608;2022-07-06T12:09:22;39.50;26.00
4306;DHT22;2166;49.926;8.608;2022-07-06T12:11:52;39.40;26.30
4306;DHT22;2166;49.926;8.608;2022-07-06T12:14:21;39.40;25.60
4306;DHT22;2166;49.926;8.608;2022-07-06T12:16:50;38.90;26.50
4306;DHT22;2166;49.926;8.608;2022-07-06T12:19:21;39.20;25.10
4306;DHT22;2166;49.926;8.608;2022-07-06T12:21:51;40.10;25.80
4306;DHT22;2166;49.926;8.608;2022-07-06T12:24:20;40.20;25.10
4306;DHT22;2166;49.926;8.608;2022-07-06T12:26:50;41.00;24.90
4306;DHT22;2166;49.926;8.608;2022-07-06T12:29:21;40.80;24.80
4306;DHT22;2166;49.926;8.608;2022-07-06T12:31:50;40.30;25.50
4306;DHT22;2166;49.926;8.608;2022-07-06T12:34:20;40.50;25.10
4306;DHT22;2166;49.926;8.608;2022-07-06T12:36:50;40.10;25.40
4306;DHT22;2166;49.926;8.608;2022-07-06T12:39:20;40.00;25.30
4306;DHT22;2166;49.926;8.608;2022-07-06T12:41:51;39.70;25.40
4306;DHT22;2166;49.926;8.608;2022-07-06T12:44:22;40.20;25.20
4306;DHT22;2166;49.926;8.608;2022-07-06T12:46:50;40.30;24.60
4306;DHT22;2166;49.926;8.608;2022-07-06T12:49:21;38.90;25.90
4306;DHT22;2166;49.926;8.608;2022-07-06T12:51:51;37.90;26.40
4306;DHT22;2166;49.926;8.608;2022-07-06T12:54:20;37.80;26.40
4306;DHT22;2166;49.926;8.608;2022-07-06T12:57:09;37.40;26.40
4306;DHT22;2166;49.926;8.608;2022-07-06T12:59:43;37.30;27.20
4306;DHT22;2166;49.926;8.608;2022-07-06T13:02:20;37.40;27.50
4306;DHT22;2166;49.926;8.608;2022-07-06T13:05:10;36.70;27.80
4306;DHT22;2166;49.926;8.608;2022-07-06T13:07:43;36.80;27.60
4306;DHT22;2166;49.926;8.608;2022-07-06T13:10:13;36.90;28.00
4306;DHT22;2166;49.926;8.608;2022-07-06T13:12:42;37.00;28.70
4306;DHT22;2166;49.926;8.608;2022-07-06T13:15:11;37.00;27.50
4306;DHT22;2166;49.926;8.608;2022-07-06T13:17:40;37.20;28.00
4306;DHT22;2166;49.926;8.608;2022-07-06T13:20:11;37.40;27.70
4306;DHT22;2166;49.926;8.608;2022-07-06T13:22:40;37.80;27.30
4306;DHT22;2166;49.926;8.608;2022-07-06T13:25:08;38.20;27.30
4306;DHT22;2166;49.926;8.608;2022-07-06T13:27:36;37.50;27.60
4306;DHT22;2166;49.926;8.608;2022-07-06T13:30:05;37.10;27.80
4306;DHT22;2166;49.926;8.608;2022-07-06T13:32:35;36.80;27.70
4306;DHT22;2166;49.926;8.608;2022-07-06T13:35:03;37.10;27.80
4306;DHT22;2166;49.926;8.608;2022-07-06T13:37:31;36.80;27.80
4306;DHT22;2166;49.926;8.608;2022-07-06T13:40:01;36.70;27.60
4306;DHT22;2166;49.926;8.608;2022-07-06T13:42:29;36.40;27.90
4306;DHT22;2166;49.926;8.608;2022-07-06T13:44:57;36.30;27.50
4306;DHT22;2166;49.926;8.608;2022-07-06T13:47:26;36.60;27.30
4306;DHT22;2166;49.926;8.608;2022-07-06T13:49:55;37.30;26.80
4306;DHT22;2166;49.926;8.608;2022-07-06T13:52:23;37.50;26.50
4306;DHT22;2166;49.926;8.608;2022-07-06T13:54:52;37.80;26.60
4306;DHT22;2166;49.926;8.608;2022-07-06T13:57:27;37.90;27.40
4306;DHT22;2166;49.926;8.608;2022-07-06T13:59:56;37.80;27.20
4306;DHT22;2166;49.926;8.608;2022-07-06T14:02:24;37.60;27.30
4306;DHT22;2166;49.926;8.608;2022-07-06T14:04:52;37.70;27.10
4306;DHT22;2166;49.926;8.608;2022-07-06T14:07:22;36.70;27.70
4306;DHT22;2166;49.926;8.608;2022-07-06T14:09:50;36.00;29.00
4306;DHT22;2166;49.926;8.608;2022-07-06T14:12:19;35.50;29.00
4306;DHT22;2166;49.926;8.608;2022-07-06T14:14:50;34.80;29.80
4306;DHT22;2166;49.926;8.608;2022-07-06T14:17:19;34.70;30.30
4306;DHT22;2166;49.926;8.608;2022-07-06T14:19:48;35.20;29.80
4306;DHT22;2166;49.926;8.608;2022-07-06T14:22:16;35.40;29.70
4306;DHT22;2166;49.926;8.608;2022-07-06T14:24:46;34.80;30.30
4306;DHT22;2166;49.926;8.608;2022-07-06T14:27:14;34.40;30.70
4306;DHT22;2166;49.926;8.608;2022-07-06T14:29:42;34.40;30.40
4306;DHT22;2166;49.926;8.608;2022-07-06T14:32:11;34.60;30.30
4306;DHT22;2166;49.926;8.608;2022-07-06T14:34:39;35.00;29.70
4306;DHT22;2166;49.926;8.608;2022-07-06T14:37:08;35.50;29.00
4306;DHT22;2166;49.926;8.608;2022-07-06T14:39:36;35.40;29.20
4306;DHT22;2166;49.926;8.608;2022-07-06T14:42:06;35.30;29.40
4306;DHT22;2166;49.926;8.608;2022-07-06T14:44:34;35.30;29.70
4306;DHT22;2166;49.926;8.608;2022-07-06T14:47:03;35.30;29.90
4306;DHT22;2166;49.926;8.608;2022-07-06T14:49:31;35.10;29.80
4306;DHT22;2166;49.926;8.608;2022-07-06T14:51:59;34.00;30.60
4306;DHT22;2166;49.926;8.608;2022-07-06T14:54:28;32.80;32.10
4306;DHT22;2166;49.926;8.608;2022-07-06T14:56:56;32.50;32.40
4306;DHT22;2166;49.926;8.608;2022-07-06T14:59:26;32.10;32.40
4306;DHT22;2166;49.926;8.608;2022-07-06T15:01:54;31.80;32.80
4306;DHT22;2166;49.926;8.608;2022-07-06T15:04:23;30.80;33.90
4306;DHT22;2166;49.926;8.608;2022-07-06T15:06:52;30.10;34.50
4306;DHT22;2166;49.926;8.608;2022-07-06T15:09:23;29.50;35.40
4306;DHT22;2166;49.926;8.608;2022-07-06T15:11:52;29.00;36.00
4306;DHT22;2166;49.926;8.608;2022-07-06T15:14:21;28.50;36.30
4306;DHT22;2166;49.926;8.608;2022-07-06T15:16:52;27.80;37.60
4306;DHT22;2166;49.926;8.608;2022-07-06T15:19:21;27.50;37.90
4306;DHT22;2166;49.926;8.608;2022-07-06T15:21:49;27.50;37.60
4306;DHT22;2166;49.926;8.608;2022-07-06T15:24:17;27.50;37.20
4306;DHT22;2166;49.926;8.608;2022-07-06T15:26:46;27.40;37.50
4306;DHT22;2166;49.926;8.608;2022-07-06T15:29:14;27.40;37.50
4306;DHT22;2166;49.926;8.608;2022-07-06T15:31:42;27.30;37.90
4306;DHT22;2166;49.926;8.608;2022-07-06T15:34:12;27.20;38.10
4306;DHT22;2166;49.926;8.608;2022-07-06T15:36:40;27.10;38.60
4306;DHT22;2166;49.926;8.608;2022-07-06T15:39:09;27.00;39.40
4306;DHT22;2166;49.926;8.608;2022-07-06T15:41:37;27.20;39.50
4306;DHT22;2166;49.926;8.608;2022-07-06T15:44:05;27.10;39.50
4306;DHT22;2166;49.926;8.608;2022-07-06T15:46:34;27.10;39.70
4306;DHT22;2166;49.926;8.608;2022-07-06T15:49:03;27.20;39.30
4306;DHT22;2166;49.926;8.608;2022-07-06T15:51:33;27.20;39.10
4306;DHT22;2166;49.926;8.608;2022-07-06T15:54:02;27.20;39.00
4306;DHT22;2166;49.926;8.608;2022-07-06T15:56:30;27.20;39.10
4306;DHT22;2166;49.926;8.608;2022-07-06T15:58:58;27.00;39.30
4306;DHT22;2166;49.926;8.608;2022-07-06T16:01:26;26.80;40.00
4306;DHT22;2166;49.926;8.608;2022-07-06T16:03:55;26.90;39.70
4306;DHT22;2166;49.926;8.608;2022-07-06T16:06:23;27.30;39.40
4306;DHT22;2166;49.926;8.608;2022-07-06T16:08:53;27.40;38.60
4306;DHT22;2166;49.926;8.608;2022-07-06T16:11:21;27.20;39.00
4306;DHT22;2166;49.926;8.608;2022-07-06T16:13:50;27.60;38.80
4306;DHT22;2166;49.926;8.608;2022-07-06T16:16:22;27.60;38.90
4306;DHT22;2166;49.926;8.608;2022-07-06T16:18:51;27.50;38.80
4306;DHT22;2166;49.926;8.608;2022-07-06T16:21:19;27.10;39.50